createdAt,value
2016-03-01T07:44:33.650Z,7840
2016-03-01T07:44:46.603Z,7892
2016-03-01T07:44:59.994Z,7928
2016-03-01T07:45:13.603Z,8020
2016-03-01T07:45:26.994Z,8156
2016-03-01T07:45:54.575Z,8572
2016-03-01T07:46:08.013Z,8772
2016-03-01T07:46:21.434Z,8944
2016-03-01T07:46:34.844Z,9152
2016-03-01T07:46:49.672Z,9520
2016-03-01T07:47:03.141Z,9772
2016-03-01T07:47:16.516Z,10076
2016-03-01T07:47:30.144Z,10364
2016-03-01T07:47:43.534Z,10732
2016-03-01T07:47:57.159Z,11044
2016-03-01T07:48:10.706Z,11308
2016-03-01T07:48:24.112Z,11536
2016-03-01T07:48:37.506Z,11800
2016-03-01T07:48:50.568Z,11968
2016-03-01T07:49:04.272Z,12116
2016-03-01T07:49:17.693Z,12176
2016-03-01T07:49:34.242Z,12064
2016-03-01T07:49:49.367Z,11944
2016-03-01T07:50:04.367Z,11708
2016-03-01T07:50:19.133Z,11428
2016-03-01T07:50:34.463Z,11164
2016-03-01T07:50:49.994Z,10984
2016-03-01T07:51:05.322Z,10760
2016-03-01T07:51:20.526Z,10604
2016-03-01T07:51:35.592Z,10472
2016-03-01T07:51:50.717Z,10392
2016-03-01T07:52:05.811Z,10476
2016-03-01T07:52:20.764Z,10580
2016-03-01T07:52:35.063Z,10728
2016-03-01T07:52:50.000Z,10776
2016-03-01T07:53:04.953Z,10928
2016-03-01T07:53:19.875Z,11032
2016-03-01T07:53:35.066Z,11112
2016-03-01T07:53:50.113Z,11208
2016-03-01T07:54:05.144Z,11348
2016-03-01T07:54:20.128Z,11484
2016-03-01T07:54:35.521Z,11520
2016-03-01T07:54:49.333Z,11624
2016-03-01T07:55:07.318Z,11756
2016-03-01T07:55:21.568Z,11744
2016-03-01T07:55:36.758Z,11820
2016-03-01T07:55:52.258Z,11852
2016-03-01T07:56:10.305Z,11940
2016-03-01T07:56:25.680Z,11972
2016-03-01T07:56:40.933Z,12048
2016-03-01T07:56:55.074Z,12124
2016-03-01T07:57:09.949Z,12084
2016-03-01T07:57:24.746Z,12188
2016-03-01T07:57:38.951Z,12284
2016-03-01T07:57:53.029Z,12396
2016-03-01T07:58:07.185Z,12436
2016-03-01T07:58:21.998Z,12552
2016-03-01T07:58:36.064Z,12472
2016-03-01T07:58:51.377Z,12348
2016-03-01T07:59:06.658Z,12288
2016-03-01T07:59:24.502Z,12260
2016-03-01T07:59:38.722Z,12388
2016-03-01T07:59:52.660Z,12564
2016-03-01T08:00:06.894Z,12840
2016-03-01T08:00:22.113Z,13000
2016-03-01T08:00:36.146Z,13020
2016-03-01T08:00:50.724Z,12948
2016-03-01T08:01:05.506Z,12780
2016-03-01T08:01:20.553Z,12428
2016-03-01T08:01:38.649Z,12000
2016-03-01T08:01:53.946Z,11708
2016-03-01T08:02:11.962Z,11160
2016-03-01T08:02:26.837Z,10888
2016-03-01T08:02:42.043Z,10796
2016-03-01T08:02:57.355Z,10700
2016-03-01T08:03:15.574Z,10628
2016-03-01T08:03:30.968Z,10680
2016-03-01T08:03:45.343Z,10888
2016-03-01T08:04:00.968Z,11192
2016-03-01T08:04:16.327Z,11548
2016-03-01T08:04:31.767Z,12008
2016-03-01T08:04:46.392Z,12544
2016-03-01T08:05:00.282Z,12948
2016-03-01T08:05:15.345Z,13260
2016-03-01T08:05:29.926Z,13328
2016-03-01T08:05:43.879Z,13272
2016-03-01T08:05:58.535Z,13196
2016-03-01T08:06:13.223Z,12980
2016-03-01T08:06:28.648Z,12788
2016-03-01T08:06:43.523Z,12680
2016-03-01T08:06:58.476Z,12688
2016-03-01T08:07:13.663Z,12816
2016-03-01T08:07:28.478Z,13060
2016-03-01T08:07:43.134Z,13520
2016-03-01T08:07:56.556Z,13912
2016-03-01T08:08:10.368Z,14232
2016-03-01T08:08:24.275Z,14448
2016-03-01T08:08:38.434Z,14716
2016-03-01T08:08:52.450Z,15064
2016-03-01T08:09:06.153Z,15292
2016-03-01T08:09:20.528Z,15428
2016-03-01T08:09:35.234Z,15712
2016-03-01T08:09:49.437Z,16036
2016-03-01T08:10:03.937Z,16292
2016-03-01T08:10:18.218Z,16480
2016-03-01T08:10:32.940Z,16764
2016-03-01T08:10:47.206Z,16884
2016-03-01T08:11:01.377Z,17252
2016-03-01T08:11:15.674Z,17468
2016-03-01T08:11:30.473Z,17684
2016-03-01T08:11:45.551Z,17828
2016-03-01T08:12:03.520Z,17892
2016-03-01T08:12:18.770Z,17860
2016-03-01T08:12:33.773Z,17708
2016-03-01T08:12:49.086Z,17536
2016-03-01T08:13:04.164Z,17284
2016-03-01T08:13:19.757Z,17184
2016-03-01T08:13:34.870Z,17212
2016-03-01T08:13:49.917Z,17360
2016-03-01T08:14:04.854Z,17556
2016-03-01T08:14:20.120Z,17804
2016-03-01T08:14:35.309Z,18068
2016-03-01T08:14:50.059Z,18592
2016-03-01T08:15:05.200Z,18880
2016-03-01T08:15:20.747Z,19296
2016-03-01T08:15:35.765Z,19904
2016-03-01T08:15:50.703Z,20640
2016-03-01T08:16:06.281Z,21600
2016-03-01T08:16:24.187Z,22560
2016-03-01T08:16:39.205Z,23072
2016-03-01T08:16:54.064Z,23008
2016-03-01T08:17:09.549Z,22656
2016-03-01T08:17:24.721Z,22080
2016-03-01T08:17:40.256Z,21728
2016-03-01T08:17:55.396Z,21568
2016-03-01T08:18:13.740Z,21536
2016-03-01T08:18:31.930Z,21952
2016-03-01T08:18:47.102Z,22208
2016-03-01T08:19:02.023Z,22432
2016-03-01T08:19:17.352Z,22432
2016-03-01T08:19:32.105Z,22432
2016-03-01T08:19:47.370Z,22176
2016-03-01T08:20:02.855Z,21952
2016-03-01T08:20:17.980Z,21632
2016-03-01T08:20:33.061Z,21440
2016-03-01T08:20:48.233Z,21344
2016-03-01T08:21:03.248Z,21088
2016-03-01T08:21:18.983Z,21376
2016-03-01T08:21:34.250Z,21760
2016-03-01T08:21:49.625Z,22144
2016-03-01T08:22:04.750Z,22528
2016-03-01T08:22:19.875Z,22944
2016-03-01T08:22:35.347Z,23712
2016-03-01T08:22:50.238Z,24448
2016-03-01T08:23:07.066Z,25184
2016-03-01T08:23:21.066Z,25856
2016-03-01T08:23:33.505Z,26240
2016-03-01T08:23:48.396Z,26304
2016-03-01T08:24:02.411Z,26592
2016-03-01T08:24:18.099Z,26720
2016-03-01T08:24:32.664Z,26688
2016-03-01T08:24:47.055Z,26624
2016-03-01T08:25:00.461Z,26400
2016-03-01T08:25:18.336Z,26176
2016-03-01T08:25:33.089Z,26144
2016-03-01T08:25:47.824Z,26208
2016-03-01T08:26:03.167Z,26048
2016-03-01T08:26:18.339Z,25824
2016-03-01T08:26:33.341Z,25536
2016-03-01T08:26:49.029Z,25344
2016-03-01T08:27:04.404Z,25248
2016-03-01T08:27:19.591Z,25152
2016-03-01T08:27:34.938Z,25120
2016-03-01T08:27:50.047Z,25280
2016-03-01T08:28:05.172Z,25344
2016-03-01T08:28:20.438Z,25344
2016-03-01T08:28:35.175Z,25280
2016-03-01T08:28:50.113Z,25344
2016-03-01T08:29:05.566Z,25536
2016-03-01T08:29:19.597Z,25568
2016-03-01T08:29:35.021Z,25504
2016-03-01T08:29:48.943Z,25696
2016-03-01T08:30:03.990Z,26208
2016-03-01T08:30:19.037Z,26752
2016-03-01T08:30:34.196Z,27392
2016-03-01T08:30:49.540Z,27712
2016-03-01T08:31:04.665Z,27712
2016-03-01T08:31:19.805Z,27552
2016-03-01T08:31:34.949Z,27232
2016-03-01T08:31:49.871Z,26816
2016-03-01T08:32:05.074Z,26432
2016-03-01T08:32:20.262Z,26240
2016-03-01T08:32:35.202Z,26496
2016-03-01T08:32:50.249Z,26656
2016-03-01T08:33:05.311Z,26944
2016-03-01T08:33:20.327Z,27200
2016-03-01T08:33:35.517Z,27008
2016-03-01T08:33:50.673Z,26912
2016-03-01T08:34:06.095Z,26848
2016-03-01T08:34:21.220Z,26848
2016-03-01T08:34:36.113Z,26688
2016-03-01T08:34:51.020Z,26528
2016-03-01T08:35:05.098Z,26528
2016-03-01T08:35:20.176Z,26528
2016-03-01T08:35:35.616Z,26432
2016-03-01T08:35:50.648Z,26464
2016-03-01T08:36:04.694Z,26752
2016-03-01T08:36:19.976Z,26944
2016-03-01T08:36:34.854Z,27136
2016-03-01T08:36:50.010Z,27424
2016-03-01T08:37:05.244Z,27680
2016-03-01T08:37:20.276Z,27936
2016-03-01T08:37:36.043Z,28000
2016-03-01T08:37:51.137Z,28288
2016-03-01T08:38:06.246Z,28320
2016-03-01T08:38:20.340Z,28480
2016-03-01T08:38:36.576Z,28512
2016-03-01T08:38:51.842Z,28640
2016-03-01T08:39:06.998Z,28768
2016-03-01T08:39:21.998Z,28864
2016-03-01T08:39:37.284Z,29024
2016-03-01T08:39:52.034Z,29248
2016-03-01T08:40:06.065Z,29280
2016-03-01T08:40:22.299Z,29248
2016-03-01T08:40:37.676Z,29248
2016-03-01T08:40:52.832Z,29248
2016-03-01T08:41:08.692Z,29344
2016-03-01T08:41:24.098Z,29600
2016-03-01T08:41:39.632Z,29760
2016-03-01T08:41:54.726Z,30176
2016-03-01T08:42:09.742Z,30336
2016-03-01T08:42:25.429Z,31040
2016-03-01T08:42:40.213Z,31776
2016-03-01T08:42:56.229Z,32544
2016-03-01T08:43:11.745Z,33120
2016-03-01T08:43:26.667Z,33536
2016-03-01T08:43:42.294Z,34176
2016-03-01T08:43:57.637Z,34688
2016-03-01T08:44:12.747Z,35200
2016-03-01T08:44:28.294Z,35360
2016-03-01T08:44:43.734Z,35488
2016-03-01T08:44:58.797Z,35104
2016-03-01T08:45:14.187Z,34912
2016-03-01T08:45:29.392Z,34816
2016-03-01T08:45:44.330Z,34560
2016-03-01T08:45:59.970Z,34112
2016-03-01T08:46:15.330Z,33792
2016-03-01T08:46:30.740Z,33536
2016-03-01T08:46:46.115Z,33760
2016-03-01T08:47:01.131Z,33824
2016-03-01T08:47:16.740Z,33632
2016-03-01T08:47:31.758Z,33280
2016-03-01T08:47:46.445Z,33024
2016-03-01T08:48:01.336Z,32800
2016-03-01T08:48:16.226Z,32416
2016-03-01T08:48:31.541Z,32416
2016-03-01T08:48:47.088Z,32576
2016-03-01T08:49:02.182Z,32576
2016-03-01T08:49:17.213Z,32416
2016-03-01T08:49:32.794Z,32064
2016-03-01T08:49:47.919Z,31840
2016-03-01T08:50:03.622Z,31424
2016-03-01T08:50:19.263Z,31168
2016-03-01T08:50:34.500Z,30976
2016-03-01T08:50:50.047Z,30976
2016-03-01T08:51:05.438Z,30976
2016-03-01T08:51:21.297Z,30912
2016-03-01T08:51:36.019Z,30912
2016-03-01T08:51:49.425Z,30912
2016-03-01T08:52:04.691Z,30592
2016-03-01T08:52:20.456Z,30560
2016-03-01T08:52:35.647Z,30560
2016-03-01T08:52:51.256Z,30720
2016-03-01T08:53:06.303Z,30720
2016-03-01T08:53:20.865Z,30688
2016-03-01T08:53:36.368Z,31008
2016-03-01T08:53:51.572Z,31360
2016-03-01T08:54:06.040Z,31392
2016-03-01T08:54:21.447Z,31680
2016-03-01T08:54:35.714Z,31808
2016-03-01T08:54:50.730Z,31936
2016-03-01T08:55:06.199Z,31968
2016-03-01T08:55:21.183Z,32480
2016-03-01T08:55:36.310Z,33056
2016-03-01T08:55:51.247Z,33728
2016-03-01T08:56:06.529Z,34144
2016-03-01T08:56:21.263Z,34368
2016-03-01T08:56:37.267Z,34624
2016-03-01T08:56:52.626Z,34944
2016-03-01T08:57:07.064Z,35200
2016-03-01T08:57:36.082Z,35232
2016-03-01T08:57:50.488Z,35136
2016-03-01T08:58:05.347Z,35072
2016-03-01T08:58:19.769Z,34976
2016-03-01T08:58:34.866Z,34752
2016-03-01T08:58:50.053Z,34752
2016-03-01T08:59:05.256Z,34016
2016-03-01T08:59:20.506Z,33376
2016-03-01T08:59:35.899Z,33184
2016-03-01T08:59:51.399Z,33056
2016-03-01T09:00:06.774Z,32736
2016-03-01T09:00:22.087Z,32608
2016-03-01T09:00:37.152Z,32384
2016-03-01T09:00:52.715Z,32224
2016-03-01T09:01:07.683Z,32128
2016-03-01T09:01:22.996Z,32000
2016-03-01T09:01:38.280Z,32032
2016-03-01T09:01:53.343Z,31968
2016-03-01T09:02:08.514Z,32128
2016-03-01T09:02:23.889Z,32000
2016-03-01T09:02:39.173Z,31584
2016-03-01T09:02:54.251Z,31392
2016-03-01T09:03:09.438Z,31424
2016-03-01T09:03:25.438Z,31520
2016-03-01T09:03:41.129Z,31232
2016-03-01T09:03:56.426Z,31232
2016-03-01T09:04:11.707Z,31392
2016-03-01T09:04:27.082Z,31392
2016-03-01T09:04:41.944Z,31456
2016-03-01T09:04:57.272Z,31360
2016-03-01T09:05:13.022Z,31232
2016-03-01T09:05:28.444Z,31744
2016-03-01T09:05:44.009Z,31840
2016-03-01T09:05:58.399Z,31744
2016-03-01T09:06:13.853Z,32064
2016-03-01T09:06:29.168Z,32256
2016-03-01T09:06:44.606Z,32224
2016-03-01T09:06:59.512Z,32288
2016-03-01T09:07:14.965Z,32256
2016-03-01T09:07:30.530Z,32384
2016-03-01T09:07:45.859Z,32512
2016-03-01T09:08:01.202Z,32576
2016-03-01T09:08:16.015Z,32800
2016-03-01T09:08:31.173Z,33088
2016-03-01T09:08:46.517Z,33376
2016-03-01T09:09:02.017Z,33952
2016-03-01T09:09:17.407Z,34368
2016-03-01T09:09:32.489Z,34304
2016-03-01T09:09:47.629Z,34112
2016-03-01T09:10:02.614Z,34176
2016-03-01T09:10:17.864Z,34272
2016-03-01T09:10:32.537Z,34208
2016-03-01T09:10:47.991Z,34080
2016-03-01T09:11:03.569Z,33664
2016-03-01T09:11:18.866Z,33504
2016-03-01T09:11:33.807Z,33280
2016-03-01T09:11:48.620Z,33024
2016-03-01T09:12:03.479Z,32896
2016-03-01T09:12:18.588Z,32768
2016-03-01T09:12:33.340Z,32768
2016-03-01T09:12:48.543Z,32864
2016-03-01T09:13:03.684Z,32896
2016-03-01T09:13:19.075Z,33248
2016-03-01T09:13:34.906Z,33792
2016-03-01T09:13:50.296Z,34048
2016-03-01T09:14:05.093Z,34400
2016-03-01T09:14:20.078Z,34784
2016-03-01T09:14:34.831Z,35232
2016-03-01T09:14:49.612Z,35808
2016-03-01T09:15:04.346Z,35872
2016-03-01T09:15:19.612Z,35776
2016-03-01T09:15:34.786Z,35712
2016-03-01T09:15:49.926Z,35648
2016-03-01T09:16:05.676Z,35360
2016-03-01T09:16:20.739Z,35360
2016-03-01T09:16:36.023Z,35552
2016-03-01T09:16:50.898Z,35520
2016-03-01T09:17:05.914Z,35584
2016-03-01T09:17:21.039Z,35904
2016-03-01T09:17:35.650Z,35968
2016-03-01T09:17:50.744Z,35936
2016-03-01T09:18:05.760Z,36064
2016-03-01T09:18:19.806Z,36192
2016-03-01T09:18:34.920Z,36192
2016-03-01T09:18:50.264Z,36128
2016-03-01T09:19:04.498Z,36032
2016-03-01T09:19:19.607Z,36160
2016-03-01T09:19:34.625Z,36352
2016-03-01T09:19:50.047Z,36128
2016-03-01T09:20:04.641Z,35968
2016-03-01T09:20:19.453Z,35904
2016-03-01T09:20:34.409Z,36032
2016-03-01T09:20:49.815Z,36288
2016-03-01T09:21:04.862Z,36160
2016-03-01T09:21:20.034Z,36256
2016-03-01T09:21:35.630Z,36256
2016-03-01T09:21:49.755Z,36480
2016-03-01T09:22:05.005Z,36480
2016-03-01T09:22:20.052Z,36128
2016-03-01T09:22:34.852Z,35584
2016-03-01T09:22:50.258Z,35264
2016-03-01T09:23:05.430Z,35008
2016-03-01T09:23:19.867Z,34592
2016-03-01T09:23:34.730Z,34272
2016-03-01T09:23:49.917Z,34208
2016-03-01T09:24:04.167Z,33952
2016-03-01T09:24:19.433Z,33952
2016-03-01T09:24:35.169Z,33888
2016-03-01T09:25:03.950Z,35616
2016-03-01T09:25:18.763Z,35424
2016-03-01T09:25:33.329Z,36512
2016-03-01T09:25:48.501Z,36704
2016-03-01T09:26:03.033Z,36384
2016-03-01T09:26:17.861Z,36352
2016-03-01T09:26:32.878Z,36288
2016-03-01T09:26:47.613Z,36192
2016-03-01T09:27:03.128Z,35936
2016-03-01T09:27:17.800Z,35904
2016-03-01T09:27:32.318Z,35968
2016-03-01T09:27:48.037Z,36192
2016-03-01T09:28:02.958Z,36352
2016-03-01T09:28:17.880Z,36256
2016-03-01T09:28:33.102Z,36512
2016-03-01T09:28:48.415Z,36736
2016-03-01T09:29:03.305Z,36960
2016-03-01T09:29:18.399Z,37216
2016-03-01T09:29:33.214Z,37408
2016-03-01T09:29:48.636Z,37600
2016-03-01T09:30:03.074Z,37344
2016-03-01T09:30:18.699Z,36608
2016-03-01T09:30:33.280Z,36480
2016-03-01T09:30:48.452Z,36096
2016-03-01T09:31:03.124Z,35968
2016-03-01T09:31:16.811Z,36128
2016-03-01T09:31:32.454Z,36128
2016-03-01T09:31:47.641Z,35520
2016-03-01T09:32:02.548Z,35168
2016-03-01T09:32:17.032Z,35008
2016-03-01T09:32:46.254Z,34368
2016-03-01T09:33:01.191Z,35040
2016-03-01T09:33:15.707Z,35648
2016-03-01T09:33:30.835Z,35744
2016-03-01T09:33:45.991Z,35904
2016-03-01T09:34:00.944Z,36128
2016-03-01T09:34:15.835Z,36320
2016-03-01T09:34:31.024Z,36512
2016-03-01T09:34:46.321Z,36288
2016-03-01T09:35:01.649Z,36128
2016-03-01T09:35:17.040Z,36448
2016-03-01T09:35:31.949Z,36096
2016-03-01T09:35:47.777Z,35904
2016-03-01T09:36:03.246Z,35232
2016-03-01T09:36:18.918Z,34624
2016-03-01T09:36:33.905Z,34880
2016-03-01T09:36:49.124Z,34464
2016-03-01T09:37:04.562Z,34080
2016-03-01T09:37:20.140Z,33600
2016-03-01T09:37:35.455Z,33248
2016-03-01T09:37:49.596Z,33248
2016-03-01T09:38:05.205Z,33088
2016-03-01T09:38:20.596Z,33376
2016-03-01T09:38:35.973Z,33120
2016-03-01T09:38:51.785Z,33088
2016-03-01T09:39:07.098Z,33024
2016-03-01T09:39:22.488Z,33088
2016-03-01T09:39:36.929Z,32896
2016-03-01T09:39:52.116Z,32864
2016-03-01T09:40:07.226Z,32768
2016-03-01T09:40:22.351Z,32800
2016-03-01T09:40:37.135Z,32736
2016-03-01T09:40:51.994Z,32736
2016-03-01T09:41:07.151Z,32928
2016-03-01T09:41:22.354Z,32768
2016-03-01T09:41:38.012Z,32800
2016-03-01T09:41:53.293Z,32544
2016-03-01T09:42:08.887Z,32384
2016-03-01T09:42:24.309Z,32000
2016-03-01T09:42:39.436Z,31712
2016-03-01T09:42:54.295Z,31712
2016-03-01T09:43:09.764Z,31584
2016-03-01T09:43:25.077Z,31488
2016-03-01T09:43:40.376Z,31456
2016-03-01T09:43:56.080Z,31616
2016-03-01T09:44:11.595Z,31616
2016-03-01T09:44:26.642Z,31840
2016-03-01T09:44:41.833Z,31872
2016-03-01T09:44:57.004Z,31584
2016-03-01T09:45:11.958Z,31616
2016-03-01T09:45:40.961Z,32224
2016-03-01T09:45:55.632Z,32864
2016-03-01T09:46:10.507Z,33216
2016-03-01T09:46:25.742Z,33632
2016-03-01T09:46:41.009Z,33984
2016-03-01T09:46:56.291Z,34240
2016-03-01T09:47:11.353Z,34528
2016-03-01T09:47:25.603Z,34496
2016-03-01T09:47:41.013Z,34592
2016-03-01T09:47:55.732Z,34464
2016-03-01T09:48:10.888Z,34464
2016-03-01T09:48:25.513Z,34528
2016-03-01T09:48:40.609Z,34624
2016-03-01T09:48:55.265Z,34816
2016-03-01T09:49:10.781Z,34880
2016-03-01T09:49:26.031Z,35296
2016-03-01T09:49:41.236Z,35840
2016-03-01T09:49:56.049Z,36160
2016-03-01T09:50:10.361Z,36128
2016-03-01T09:50:26.002Z,35584
2016-03-01T09:50:40.724Z,34944
2016-03-01T09:50:55.583Z,34688
2016-03-01T09:51:10.520Z,34336
2016-03-01T09:51:25.864Z,34272
2016-03-01T09:51:41.148Z,34400
2016-03-01T09:51:56.055Z,34496
2016-03-01T09:52:11.211Z,34368
2016-03-01T09:52:26.086Z,34752
2016-03-01T09:52:40.604Z,35040
2016-03-01T09:52:55.807Z,35552
2016-03-01T09:53:10.900Z,35776
2016-03-01T09:53:26.150Z,35744
2016-03-01T09:53:40.966Z,35680
2016-03-01T09:53:56.372Z,36064
2016-03-01T09:54:11.185Z,36576
2016-03-01T09:54:25.919Z,36960
2016-03-01T09:54:40.719Z,37184
2016-03-01T09:54:55.844Z,37536
2016-03-01T09:55:11.391Z,37952
2016-03-01T09:55:26.500Z,37888
2016-03-01T09:55:41.488Z,37952
2016-03-01T09:55:56.378Z,37568
2016-03-01T09:56:11.034Z,39616
2016-03-01T09:56:24.925Z,40256
2016-03-01T09:56:54.224Z,40512
2016-03-01T09:57:08.865Z,40352
2016-03-01T09:57:23.615Z,40256
2016-03-01T09:57:38.431Z,39936
2016-03-01T09:57:53.572Z,39968
2016-03-01T09:58:08.837Z,40000
2016-03-01T09:58:23.556Z,40128
2016-03-01T09:58:39.058Z,40320
2016-03-01T09:58:54.667Z,40192
2016-03-01T09:59:09.386Z,40544
2016-03-01T09:59:24.402Z,40736
2016-03-01T09:59:39.905Z,40544
2016-03-01T09:59:55.530Z,41280
2016-03-01T10:00:10.858Z,41408
2016-03-01T10:00:24.686Z,41888
2016-03-01T10:00:40.094Z,42496
2016-03-01T10:00:55.157Z,43040
2016-03-01T10:01:10.157Z,43904
2016-03-01T10:01:24.969Z,44384
2016-03-01T10:01:40.129Z,44960
2016-03-01T10:01:55.441Z,45088
2016-03-01T10:02:10.269Z,44768
2016-03-01T10:02:24.988Z,44544
2016-03-01T10:02:40.272Z,44832
2016-03-01T10:02:55.585Z,44160
2016-03-01T10:03:10.647Z,44160
2016-03-01T10:03:25.710Z,44000
2016-03-01T10:03:40.555Z,43296
2016-03-01T10:04:09.384Z,42848
2016-03-01T10:04:24.634Z,42464
2016-03-01T10:04:39.308Z,42176
2016-03-01T10:04:53.949Z,41920
2016-03-01T10:05:08.652Z,41664
2016-03-01T10:05:23.793Z,41248
2016-03-01T10:05:39.093Z,41056
2016-03-01T10:05:53.468Z,40896
2016-03-01T10:06:08.265Z,40544
2016-03-01T10:06:23.186Z,40576
2016-03-01T10:06:38.486Z,40512
2016-03-01T10:06:53.502Z,39968
2016-03-01T10:07:08.268Z,40480
2016-03-01T10:07:23.252Z,40768
2016-03-01T10:07:38.082Z,41056
2016-03-01T10:07:53.504Z,41344
2016-03-01T10:08:08.520Z,41600
2016-03-01T10:08:23.613Z,41856
2016-03-01T10:08:38.882Z,42112
2016-03-01T10:08:53.523Z,42496
2016-03-01T10:09:08.773Z,42624
2016-03-01T10:09:23.913Z,42272
2016-03-01T10:09:39.104Z,41920
2016-03-01T10:09:54.276Z,41536
2016-03-01T10:10:09.401Z,41248
2016-03-01T10:10:24.822Z,40832
2016-03-01T10:10:41.106Z,40224
2016-03-01T10:10:55.949Z,39808
2016-03-01T10:11:11.746Z,39840
2016-03-01T10:11:26.918Z,39936
2016-03-01T10:11:41.843Z,40064
2016-03-01T10:11:56.952Z,40576
2016-03-01T10:12:25.734Z,41408
2016-03-01T10:12:42.643Z,41408
2016-03-01T10:12:57.987Z,41664
2016-03-01T10:13:13.534Z,41824
2016-03-01T10:13:28.424Z,42016
2016-03-01T10:13:43.504Z,42240
2016-03-01T10:13:58.582Z,42528
2016-03-01T10:14:13.692Z,43008
2016-03-01T10:14:28.317Z,43456
2016-03-01T10:14:43.757Z,44288
2016-03-01T10:14:58.773Z,44864
2016-03-01T10:15:14.007Z,44960
2016-03-01T10:15:28.976Z,45056
2016-03-01T10:15:44.228Z,45600
2016-03-01T10:15:59.525Z,45536
2016-03-01T10:16:14.212Z,45344
2016-03-01T10:16:29.666Z,45120
2016-03-01T10:16:45.278Z,44480
2016-03-01T10:17:00.403Z,43488
2016-03-01T10:17:15.465Z,42752
2016-03-01T10:17:30.625Z,42176
2016-03-01T10:17:46.281Z,42112
2016-03-01T10:18:01.297Z,42112
2016-03-01T10:18:16.328Z,42048
2016-03-01T10:18:31.267Z,42016
2016-03-01T10:18:46.689Z,41824
2016-03-01T10:19:01.877Z,41792
2016-03-01T10:19:16.580Z,41568
2016-03-01T10:19:31.803Z,41216
2016-03-01T10:19:47.037Z,41056
2016-03-01T10:20:02.037Z,40576
2016-03-01T10:20:17.240Z,40384
2016-03-01T10:20:32.430Z,40256
2016-03-01T10:20:47.008Z,40256
2016-03-01T10:21:01.898Z,40256
2016-03-01T10:21:16.742Z,40224
2016-03-01T10:21:31.916Z,40064
2016-03-01T10:21:46.791Z,39936
2016-03-01T10:22:00.760Z,40128
2016-03-01T10:22:16.103Z,40480
2016-03-01T10:22:31.356Z,40608
2016-03-01T10:22:45.872Z,40928
2016-03-01T10:23:00.825Z,41184
2016-03-01T10:23:15.638Z,41568
2016-03-01T10:23:29.841Z,42112
2016-03-01T10:23:43.500Z,42560
2016-03-01T10:23:58.484Z,42720
2016-03-01T10:24:13.688Z,42944
2016-03-01T10:24:42.503Z,42304
2016-03-01T10:25:00.784Z,41984
2016-03-01T10:25:16.003Z,41344
2016-03-01T10:25:31.177Z,41280
2016-03-01T10:25:46.208Z,40800
2016-03-01T10:26:00.896Z,40384
2016-03-01T10:26:16.380Z,40032
2016-03-01T10:26:31.383Z,39712
2016-03-01T10:26:46.711Z,39264
2016-03-01T10:27:02.149Z,39072
2016-03-01T10:27:16.446Z,38816
2016-03-01T10:27:32.167Z,38464
2016-03-01T10:27:47.199Z,38464
2016-03-01T10:28:01.855Z,38496
2016-03-01T10:28:16.730Z,38496
2016-03-01T10:28:31.685Z,38688
2016-03-01T10:28:47.029Z,38656
2016-03-01T10:29:02.044Z,38816
2016-03-01T10:29:17.185Z,39168
2016-03-01T10:29:32.438Z,39456
2016-03-01T10:29:47.875Z,40096
2016-03-01T10:30:03.391Z,40512
2016-03-01T10:30:18.375Z,41056
2016-03-01T10:30:33.503Z,41376
2016-03-01T10:30:48.582Z,41440
2016-03-01T10:31:04.128Z,41312
2016-03-01T10:31:19.238Z,41472
2016-03-01T10:31:34.725Z,41856
2016-03-01T10:31:49.756Z,42048
2016-03-01T10:32:08.131Z,41632
2016-03-01T10:32:23.881Z,41056
2016-03-01T10:32:39.149Z,41504
2016-03-01T10:32:54.321Z,41536
2016-03-01T10:33:09.321Z,41600
2016-03-01T10:33:24.243Z,41376
2016-03-01T10:33:39.168Z,41216
2016-03-01T10:33:54.246Z,41248
2016-03-01T10:34:08.808Z,41504
2016-03-01T10:34:23.465Z,42080
2016-03-01T10:34:38.639Z,41856
2016-03-01T10:34:53.671Z,41632
2016-03-01T10:35:08.577Z,41504
2016-03-01T10:35:23.733Z,41760
2016-03-01T10:35:38.641Z,42016
2016-03-01T10:35:53.345Z,41984
2016-03-01T10:36:08.298Z,41984
2016-03-01T10:36:23.563Z,42080
2016-03-01T10:36:38.051Z,42144
2016-03-01T10:36:53.332Z,42368
2016-03-01T10:37:08.504Z,42432
2016-03-01T10:37:24.129Z,42464
2016-03-01T10:37:38.396Z,42528
2016-03-01T10:37:53.771Z,42560
2016-03-01T10:38:09.084Z,42688
2016-03-01T10:38:23.131Z,42368
2016-03-01T10:38:38.166Z,42272
2016-03-01T10:38:53.479Z,42080
2016-03-01T10:39:08.947Z,41856
2016-03-01T10:39:24.166Z,41376
2016-03-01T10:39:39.340Z,40992
2016-03-01T10:39:54.387Z,40448
2016-03-01T10:40:09.715Z,39840
2016-03-01T10:40:24.887Z,39936
2016-03-01T10:40:40.093Z,41440
2016-03-01T10:40:55.093Z,41440
2016-03-01T10:41:23.702Z,41856
2016-03-01T10:41:38.783Z,42304
2016-03-01T10:41:53.877Z,42336
2016-03-01T10:42:08.815Z,42368
2016-03-01T10:42:24.065Z,42464
2016-03-01T10:42:39.145Z,42560
2016-03-01T10:42:54.067Z,42688
2016-03-01T10:43:09.301Z,43136
2016-03-01T10:43:24.129Z,43264
2016-03-01T10:43:39.273Z,43072
2016-03-01T10:43:52.835Z,42560
2016-03-01T10:44:07.632Z,42336
2016-03-01T10:44:22.538Z,42240
2016-03-01T10:44:37.620Z,42144
2016-03-01T10:44:52.807Z,42048
2016-03-01T10:45:08.182Z,42080
2016-03-01T10:45:23.338Z,42272
2016-03-01T10:45:38.435Z,42080
2016-03-01T10:45:53.779Z,41920
2016-03-01T10:46:08.076Z,41984
2016-03-01T10:46:23.326Z,42144
2016-03-01T10:46:38.453Z,42336
2016-03-01T10:46:53.765Z,42176
2016-03-01T10:47:08.828Z,42400
2016-03-01T10:47:24.140Z,42592
2016-03-01T10:47:39.361Z,42784
2016-03-01T10:47:54.486Z,42816
2016-03-01T10:48:09.814Z,42656
2016-03-01T10:48:24.845Z,42880
2016-03-01T10:48:40.037Z,43072
2016-03-01T10:48:55.099Z,42848
2016-03-01T10:49:24.256Z,43680
2016-03-01T10:49:39.336Z,44192
2016-03-01T10:49:54.445Z,44384
2016-03-01T10:50:09.742Z,44512
2016-03-01T10:50:24.945Z,44448
2016-03-01T10:50:40.370Z,44448
2016-03-01T10:50:55.745Z,44800
2016-03-01T10:51:11.104Z,44672
2016-03-01T10:51:26.292Z,43936
2016-03-01T10:51:41.451Z,43424
2016-03-01T10:51:56.576Z,43040
2016-03-01T10:52:12.154Z,42816
2016-03-01T10:52:27.779Z,43040
2016-03-01T10:52:43.047Z,42560
2016-03-01T10:52:58.344Z,42400
2016-03-01T10:53:13.703Z,42272
2016-03-01T10:53:28.859Z,42560
2016-03-01T10:53:43.893Z,42336
2016-03-01T10:53:58.830Z,41920
2016-03-01T10:54:14.330Z,41376
2016-03-01T10:54:29.424Z,40960
2016-03-01T10:54:44.302Z,40448
2016-03-01T10:54:59.349Z,39968
2016-03-01T10:55:17.349Z,39520
2016-03-01T10:55:32.352Z,39200
2016-03-01T10:55:47.727Z,38944
2016-03-01T10:56:02.727Z,38624
2016-03-01T10:56:17.649Z,38304
2016-03-01T10:56:32.698Z,39424
2016-03-01T10:56:47.886Z,39232
2016-03-01T10:57:02.995Z,39104
2016-03-01T10:57:17.933Z,38784
2016-03-01T10:57:33.013Z,39520
2016-03-01T10:57:47.950Z,39808
2016-03-01T10:58:03.404Z,39904
2016-03-01T10:58:18.357Z,40640
2016-03-01T10:58:32.328Z,38304
2016-03-01T10:58:47.297Z,38208
2016-03-01T10:59:02.188Z,38016
2016-03-01T10:59:17.735Z,38080
2016-03-01T10:59:33.113Z,38016
2016-03-01T10:59:48.410Z,37824
2016-03-01T11:00:03.488Z,37760
2016-03-01T11:00:18.769Z,37472
2016-03-01T11:00:34.037Z,37248
2016-03-01T11:00:49.521Z,36896
2016-03-01T11:01:04.130Z,36992
2016-03-01T11:01:19.068Z,36864